createdAt,value
2022-07-27T00:03:12.952Z,0.50
2022-07-27T00:07:14.957Z,0.40
2022-07-27T00:11:17.016Z,0.40
2022-07-27T00:15:19.063Z,0.50
2022-07-27T00:19:21.083Z,0.50
2022-07-27T00:23:23.139Z,0.50
2022-07-27T00:27:25.167Z,0.60
2022-07-27T00:31:27.373Z,0.50
2022-07-27T00:35:29.446Z,0.60
2022-07-27T00:39:31.989Z,0.70
2022-07-27T00:43:49.592Z,0.40
2022-07-27T00:51:57.355Z,0.60
2022-07-27T00:55:59.596Z,0.50
2022-07-27T01:00:01.709Z,0.70
2022-07-27T01:04:04.983Z,0.55
2022-07-27T01:08:07.807Z,0.60
2022-07-27T01:12:15.243Z,0.60
2022-07-27T01:16:17.399Z,0.70
2022-07-27T01:20:19.507Z,0.60
2022-07-27T01:24:21.545Z,0.70
2022-07-27T01:28:23.633Z,0.70
2022-07-27T01:32:26.977Z,0.60
2022-07-27T01:36:29.805Z,0.60
2022-07-27T01:40:31.985Z,0.77
2022-07-27T01:44:34.055Z,0.60
2022-07-27T01:48:36.148Z,0.65
2022-07-27T01:52:39.259Z,0.52
2022-07-27T01:56:41.604Z,0.90
2022-07-27T02:00:44.344Z,0.75
2022-07-27T02:04:46.441Z,0.68
2022-07-27T02:08:48.527Z,0.70
2022-07-27T02:12:51.758Z,0.60
2022-07-27T02:16:53.818Z,0.77
2022-07-27T02:20:57.776Z,0.73
2022-07-27T02:24:59.923Z,0.93
2022-07-27T02:29:01.929Z,0.80
2022-07-27T02:33:04.236Z,1.08
2022-07-27T02:37:06.450Z,0.63
2022-07-27T02:41:08.451Z,0.60
2022-07-27T02:45:10.720Z,0.70
2022-07-27T02:49:13.168Z,0.70
2022-07-27T02:53:15.484Z,0.90
2022-07-27T02:57:17.723Z,0.80
2022-07-27T03:01:19.825Z,0.75
2022-07-27T03:05:21.951Z,0.90
2022-07-27T03:09:32.725Z,0.80
2022-07-27T03:13:35.644Z,0.70
2022-07-27T03:17:37.666Z,1.00
2022-07-27T03:21:39.694Z,0.90
2022-07-27T03:25:41.717Z,0.80
2022-07-27T03:29:43.771Z,1.00
2022-07-27T03:33:45.809Z,0.80
2022-07-27T03:37:47.861Z,0.90
2022-07-27T03:41:49.879Z,0.77
2022-07-27T03:45:52.052Z,0.70
2022-07-27T03:49:54.285Z,1.00
2022-07-27T03:53:56.355Z,0.77
2022-07-27T03:57:59.068Z,0.88
2022-07-27T04:02:01.281Z,1.00
2022-07-27T04:06:03.423Z,1.40
2022-07-27T04:10:06.563Z,1.25
2022-07-27T04:14:10.364Z,1.00
2022-07-27T04:18:15.198Z,1.08
2022-07-27T04:22:17.215Z,1.27
2022-07-27T04:26:19.397Z,1.20
2022-07-27T04:30:21.939Z,0.90
2022-07-27T04:34:23.995Z,0.85
2022-07-27T04:38:26.008Z,1.50
2022-07-27T04:42:30.002Z,1.00
2022-07-27T04:46:32.368Z,0.95
2022-07-27T04:50:44.999Z,1.15
2022-07-27T04:54:51.733Z,0.90
2022-07-27T04:58:54.696Z,1.27
2022-07-27T05:02:56.703Z,1.02
2022-07-27T05:06:58.740Z,0.95
2022-07-27T05:11:00.917Z,1.10
2022-07-27T05:15:03.161Z,0.90
2022-07-27T05:19:05.220Z,1.15
2022-07-27T05:23:07.297Z,1.17
2022-07-27T05:27:09.383Z,1.00
2022-07-27T05:31:11.404Z,1.00
2022-07-27T05:35:13.675Z,1.20
2022-07-27T05:39:16.113Z,1.17
2022-07-27T05:43:18.337Z,1.23
2022-07-27T05:47:20.525Z,0.93
2022-07-27T05:51:22.633Z,1.20
2022-07-27T05:55:25.866Z,1.10
2022-07-27T05:59:28.329Z,1.10
2022-07-27T06:03:31.025Z,1.10
2022-07-27T06:07:51.567Z,0.80
2022-07-27T06:11:53.621Z,0.90
2022-07-27T06:15:56.071Z,0.82
2022-07-27T06:19:58.139Z,1.05
2022-07-27T06:24:00.232Z,0.80
2022-07-27T06:28:03.951Z,1.00
2022-07-27T06:32:06.732Z,0.80
2022-07-27T06:36:10.002Z,1.20
2022-07-27T06:40:14.049Z,0.93
2022-07-27T06:44:16.196Z,0.70
2022-07-27T06:48:18.213Z,1.17
2022-07-27T06:52:20.244Z,0.80
2022-07-27T06:56:22.597Z,0.93
2022-07-27T07:00:24.828Z,0.70
2022-07-27T07:04:27.143Z,0.60
2022-07-27T07:08:29.311Z,0.85
2022-07-27T07:12:32.080Z,1.00
2022-07-27T07:16:34.557Z,0.95
2022-07-27T07:20:37.819Z,0.70
2022-07-27T07:24:39.906Z,0.70
2022-07-27T07:28:42.029Z,0.90
2022-07-27T07:32:44.636Z,0.70
2022-07-27T07:36:47.819Z,0.68
2022-07-27T07:40:50.003Z,1.00
2022-07-27T07:44:52.206Z,0.70
2022-07-27T07:48:54.329Z,0.73
2022-07-27T07:52:56.539Z,0.77
2022-07-27T07:56:58.564Z,1.00
2022-07-27T08:01:00.656Z,0.80
2022-07-27T08:05:02.901Z,0.80
2022-07-27T08:09:04.981Z,1.00
2022-07-27T08:13:07.277Z,1.00
2022-07-27T08:17:09.319Z,0.80
2022-07-27T08:21:11.391Z,1.00
2022-07-27T08:25:13.882Z,0.55
2022-07-27T08:29:16.253Z,0.90
2022-07-27T08:33:18.580Z,0.82
2022-07-27T08:37:20.600Z,0.80
2022-07-27T08:41:25.875Z,0.90
2022-07-27T08:45:28.661Z,0.68
2022-07-27T08:49:42.517Z,0.70
2022-07-27T08:53:53.282Z,0.73
2022-07-27T08:58:02.217Z,0.70
2022-07-27T09:02:10.637Z,0.95
2022-07-27T09:06:12.744Z,0.80
2022-07-27T09:10:38.115Z,0.75
2022-07-27T09:14:41.480Z,0.75
2022-07-27T09:18:43.587Z,0.52
2022-07-27T09:22:51.067Z,0.80
2022-07-27T09:27:02.108Z,0.80
2022-07-27T09:31:09.322Z,0.77
2022-07-27T09:35:23.427Z,0.65
2022-07-27T09:39:26.943Z,0.77
2022-07-27T09:44:28.701Z,0.60
2022-07-27T09:47:52.889Z,0.80
2022-07-27T09:51:59.938Z,0.80
2022-07-27T09:56:07.360Z,0.77
2022-07-27T10:00:11.731Z,0.70
2022-07-27T10:04:14.277Z,0.65
2022-07-27T10:08:16.738Z,0.63
2022-07-27T10:12:18.809Z,0.85
2022-07-27T10:16:28.762Z,0.70
2022-07-27T10:20:33.510Z,0.68
2022-07-27T10:24:37.167Z,0.55
2022-07-27T10:28:58.402Z,0.85
2022-07-27T10:33:12.014Z,0.60
2022-07-27T10:37:26.530Z,0.80
2022-07-27T10:41:31.375Z,0.60
2022-07-27T10:45:57.809Z,0.60
2022-07-27T10:50:15.757Z,0.80
2022-07-27T10:54:26.996Z,0.60
2022-07-27T10:58:29.598Z,0.68
2022-07-27T11:02:40.627Z,0.82
2022-07-27T11:07:22.117Z,0.70
2022-07-27T11:11:08.830Z,0.57
2022-07-27T11:15:10.942Z,0.50
2022-07-27T11:19:13.473Z,0.60
2022-07-27T11:23:50.508Z,0.75
2022-07-27T11:27:52.147Z,1.10
2022-07-27T11:31:57.673Z,0.60
2022-07-27T11:36:06.040Z,0.88
2022-07-27T11:40:37.270Z,0.80
2022-07-27T11:44:30.881Z,0.73
2022-07-27T11:48:56.455Z,0.70
2022-07-27T11:53:01.803Z,0.60
2022-07-27T11:57:18.888Z,0.60
2022-07-27T12:01:33.703Z,0.70
2022-07-27T12:05:35.760Z,0.60
2022-07-27T12:09:43.455Z,0.70
2022-07-27T12:13:45.462Z,0.50
2022-07-27T12:17:55.189Z,0.60
2022-07-27T12:21:58.172Z,0.50
2022-07-27T12:26:17.225Z,0.50
2022-07-27T12:30:31.217Z,0.57
2022-07-27T12:34:35.281Z,0.77
2022-07-27T12:38:45.566Z,0.63
2022-07-27T12:42:55.943Z,0.68
2022-07-27T12:47:01.861Z,0.70
2022-07-27T12:51:06.852Z,0.60
2022-07-27T12:55:15.343Z,0.68
2022-07-27T12:59:23.285Z,0.65
2022-07-27T13:03:25.503Z,0.47
2022-07-27T13:07:27.586Z,0.70
2022-07-27T13:11:29.635Z,0.80
2022-07-27T13:15:31.897Z,0.63
2022-07-27T13:19:33.976Z,0.65
2022-07-27T13:23:36.201Z,0.60
2022-07-27T13:27:39.360Z,0.70
2022-07-27T13:31:49.013Z,0.82
2022-07-27T13:36:00.536Z,0.47
2022-07-27T13:40:04.480Z,0.60
2022-07-27T13:44:08.485Z,0.60
2022-07-27T13:48:12.962Z,0.70
2022-07-27T13:52:15.149Z,0.80
2022-07-27T13:56:17.414Z,0.50
2022-07-27T14:00:25.923Z,0.60
2022-07-27T14:04:28.110Z,0.50
2022-07-27T14:08:30.945Z,0.43
2022-07-27T14:12:33.064Z,0.50
2022-07-27T14:16:35.326Z,0.50
2022-07-27T14:20:37.622Z,0.40
2022-07-27T14:24:39.861Z,0.50
2022-07-27T14:28:43.809Z,0.40
2022-07-27T14:32:45.862Z,0.38
2022-07-27T14:36:47.876Z,0.43
2022-07-27T14:40:50.620Z,0.50
2022-07-27T14:44:53.175Z,0.45
2022-07-27T14:49:10.678Z,0.47
2022-07-27T14:53:12.947Z,0.52
2022-07-27T14:57:15.614Z,0.45
2022-07-27T15:01:17.685Z,0.50
2022-07-27T15:05:19.834Z,0.60
2022-07-27T15:09:22.152Z,0.47
2022-07-27T15:13:24.919Z,0.43
2022-07-27T15:17:27.053Z,0.40
2022-07-27T15:21:29.588Z,0.40
2022-07-27T15:25:31.779Z,0.40
2022-07-27T15:29:33.842Z,0.40
2022-07-27T15:33:35.996Z,0.60
2022-07-27T15:37:38.154Z,0.55
2022-07-27T15:41:40.330Z,0.30
2022-07-27T15:45:45.472Z,0.30
2022-07-27T15:49:47.994Z,0.50
2022-07-27T15:53:50.159Z,0.43
2022-07-27T15:57:52.214Z,0.52
2022-07-27T16:01:54.329Z,0.50
2022-07-27T16:05:56.924Z,0.70
2022-07-27T16:09:58.987Z,0.40
2022-07-27T16:14:01.064Z,0.30
2022-07-27T16:18:03.148Z,0.57
2022-07-27T16:22:05.424Z,0.50
2022-07-27T16:26:08.389Z,0.38
2022-07-27T16:30:11.617Z,0.40
2022-07-27T16:34:23.024Z,0.40
2022-07-27T16:38:25.522Z,0.50
2022-07-27T16:42:27.575Z,0.40
2022-07-27T16:46:29.841Z,0.40
2022-07-27T16:50:32.039Z,0.40
2022-07-27T16:54:38.819Z,0.50
2022-07-27T16:58:41.940Z,0.40
2022-07-27T17:02:44.029Z,0.50
2022-07-27T17:06:46.134Z,0.40
2022-07-27T17:10:48.197Z,0.50
2022-07-27T17:14:50.376Z,0.65
2022-07-27T17:18:52.456Z,0.40
2022-07-27T17:22:55.229Z,0.35
2022-07-27T17:26:57.297Z,0.40
2022-07-27T17:30:59.569Z,0.50
2022-07-27T17:35:01.686Z,0.38
2022-07-27T17:39:05.782Z,0.30
2022-07-27T17:43:07.877Z,0.43
2022-07-27T17:47:09.900Z,0.40
2022-07-27T17:51:12.074Z,0.40
2022-07-27T17:55:14.217Z,0.60
2022-07-27T17:59:36.607Z,0.40
2022-07-27T18:03:40.151Z,0.40
2022-07-27T18:07:42.233Z,0.50
2022-07-27T18:11:44.489Z,0.40
2022-07-27T18:15:54.582Z,0.50
2022-07-27T18:19:56.660Z,0.63
2022-07-27T18:23:59.348Z,0.30
2022-07-27T18:28:02.028Z,0.40
2022-07-27T18:32:04.172Z,0.40
2022-07-27T18:36:06.615Z,0.80
2022-07-27T18:40:09.260Z,0.55
2022-07-27T18:44:11.324Z,0.50
2022-07-27T18:48:13.949Z,0.60
2022-07-27T18:52:15.979Z,0.40
2022-07-27T18:56:18.040Z,0.70
2022-07-27T19:00:20.087Z,0.40
2022-07-27T19:04:22.180Z,0.60
2022-07-27T19:08:26.903Z,0.50
2022-07-27T19:12:29.571Z,0.40
2022-07-27T19:16:31.835Z,0.50
2022-07-27T19:20:33.976Z,0.52
2022-07-27T19:24:36.029Z,0.57
2022-07-27T19:28:38.224Z,0.32
2022-07-27T19:32:40.265Z,0.40
2022-07-27T19:36:42.317Z,0.50
2022-07-27T19:40:46.190Z,0.50
2022-07-27T19:44:48.385Z,0.80
2022-07-27T19:48:50.485Z,0.77
2022-07-27T19:52:52.584Z,0.50
2022-07-27T19:56:54.591Z,0.63
2022-07-27T20:00:56.745Z,0.77
2022-07-27T20:04:58.817Z,0.70
2022-07-27T20:09:00.836Z,0.68
2022-07-27T20:13:03.011Z,0.60
2022-07-27T20:17:06.899Z,0.50
2022-07-27T20:21:16.390Z,0.60
2022-07-27T20:25:25.680Z,0.50
2022-07-27T20:29:31.571Z,0.43
2022-07-27T20:33:35.330Z,0.68
2022-07-27T20:37:37.921Z,0.40
2022-07-27T20:41:40.072Z,0.73
2022-07-27T20:45:42.301Z,0.70
2022-07-27T20:49:44.421Z,0.50
2022-07-27T20:53:46.478Z,0.52
2022-07-27T20:57:48.673Z,0.60
2022-07-27T21:01:51.397Z,0.70
2022-07-27T21:05:53.554Z,0.52
2022-07-27T21:09:55.782Z,0.82
2022-07-27T21:13:57.978Z,0.60
2022-07-27T21:18:00.048Z,0.98
2022-07-27T21:22:02.430Z,1.15
2022-07-27T21:26:04.521Z,0.50
2022-07-27T21:30:06.978Z,0.50
2022-07-27T21:34:09.121Z,0.50
2022-07-27T21:38:11.192Z,0.52
2022-07-27T21:42:13.258Z,1.10
2022-07-27T21:46:15.588Z,1.02
2022-07-27T21:50:18.044Z,0.73
2022-07-27T21:54:20.093Z,0.80
2022-07-27T21:58:22.206Z,0.80
2022-07-27T22:02:27.463Z,0.80
2022-07-27T22:06:30.272Z,0.57
2022-07-27T22:10:32.393Z,0.70
2022-07-27T22:14:34.425Z,0.60
2022-07-27T22:18:36.457Z,0.50
2022-07-27T22:22:38.700Z,0.70
2022-07-27T22:26:40.854Z,0.60
2022-07-27T22:30:42.924Z,0.70
2022-07-27T22:35:02.164Z,0.70
2022-07-27T22:39:04.252Z,0.65
2022-07-27T22:43:06.295Z,0.68
2022-07-27T22:47:08.838Z,0.60
2022-07-27T22:51:10.911Z,0.70
2022-07-27T22:55:12.926Z,0.70
2022-07-27T22:59:14.972Z,0.52
2022-07-27T23:03:17.140Z,0.57
2022-07-27T23:07:19.160Z,0.70
2022-07-27T23:11:21.179Z,0.50
2022-07-27T23:15:23.278Z,0.70
2022-07-27T23:19:25.333Z,0.43
2022-07-27T23:23:27.586Z,0.65
2022-07-27T23:27:29.817Z,0.70
2022-07-27T23:31:31.909Z,0.55
2022-07-27T23:35:34.093Z,0.40
2022-07-27T23:39:36.104Z,0.50
2022-07-27T23:43:38.133Z,0.70
2022-07-27T23:47:43.249Z,0.70
2022-07-27T23:51:45.860Z,0.52
2022-07-27T23:55:47.928Z,0.45
2022-07-27T23:59:49.967Z,0.50
